Time;durP1;ratioP1;P1;durP2;ratioP2;P2;SDS_P1;SDS_P2;PMS_P1;PMS_P2;Temp;Humidity;BMP_temperature;BMP_pressure;BME280_temperature;BME280_humidity;BME280_pressure;Samples;Min_cycle;Max_cycle;Signal;HPM_P1;HPM_P2
2021/01/31 00:00:40;;;;;;;17.38;8.63;;;1.10;97.90;;;;;;5032195;28;20039;-71
2021/01/31 00:03:18;;;;;;;16.17;7.90;;;0.90;97.30;;;;;;5032103;28;20029;-72
2021/01/31 00:05:44;;;;;;;13.07;7.13;;;0.70;97.10;;;;;;5030249;28;20033;-72
2021/01/31 00:08:12;;;;;;;17.05;8.77;;;0.60;97.10;;;;;;5032628;28;20036;-71
2021/01/31 00:10:38;;;;;;;17.42;8.52;;;0.60;97.20;;;;;;5032570;28;20368;-70
2021/01/31 00:13:04;;;;;;;16.02;8.68;;;0.70;97.40;;;;;;5031666;28;20494;-70
2021/01/31 00:15:33;;;;;;;15.50;8.68;;;0.70;97.30;;;;;;5031178;28;20364;-71
2021/01/31 00:18:00;;;;;;;13.95;8.00;;;0.70;97.40;;;;;;5031811;28;20103;-71
2021/01/31 00:20:28;;;;;;;16.70;8.73;;;0.50;97.00;;;;;;5030528;28;20112;-72
2021/01/31 00:22:53;;;;;;;;;;;0.60;97.10;;;;;;5033619;28;20028;-70
2021/01/31 00:25:19;;;;;;;15.57;8.05;;;0.20;96.80;;;;;;5029607;28;19917;-73
2021/01/31 00:27:45;;;;;;;16.90;8.68;;;0.20;97.00;;;;;;5024687;28;20337;-71
2021/01/31 00:30:36;;;;;;;15.82;8.07;;;0.20;97.10;;;;;;5064080;28;20041;-71
2021/01/31 00:33:05;;;;;;;18.23;8.50;;;0.20;97.30;;;;;;5060761;28;20041;-71
2021/01/31 00:35:33;;;;;;;18.25;8.80;;;0.30;97.10;;;;;;5030389;28;21439;-71
2021/01/31 00:37:59;;;;;;;15.18;8.45;;;0.30;97.10;;;;;;5033066;28;20124;-72
2021/01/31 00:40:25;;;;;;;17.58;8.55;;;0.30;97.00;;;;;;5031429;28;20170;-70
2021/01/31 00:42:50;;;;;;;16.05;8.73;;;0.20;97.00;;;;;;5030655;28;20037;-71
2021/01/31 00:45:20;;;;;;;17.20;8.85;;;0.20;97.10;;;;;;5031467;28;20060;-71
2021/01/31 00:47:46;;;;;;;17.08;8.70;;;0.10;97.10;;;;;;5030359;28;20071;-72
2021/01/31 00:50:14;;;;;;;16.55;7.97;;;0.00;97.00;;;;;;5033446;28;20415;-71
2021/01/31 00:52:40;;;;;;;17.88;9.25;;;0.10;97.10;;;;;;5036833;28;20026;-73
2021/01/31 00:55:06;;;;;;;14.93;8.15;;;0.10;97.20;;;;;;5035363;28;20618;-71
2021/01/31 00:57:31;;;;;;;17.27;8.30;;;0.00;96.80;;;;;;5035195;28;20482;-71
2021/01/31 00:59:57;;;;;;;18.33;9.48;;;0.00;97.00;;;;;;5034296;28;20416;-71
2021/01/31 01:02:23;;;;;;;14.98;8.43;;;-0.10;97.10;;;;;;5035258;28;20119;-71
2021/01/31 01:04:49;;;;;;;16.15;8.90;;;0.00;97.10;;;;;;5036728;28;20017;-69
2021/01/31 01:07:17;;;;;;;17.75;8.75;;;0.00;96.90;;;;;;5034300;28;20519;-70
2021/01/31 01:09:43;;;;;;;16.65;9.25;;;0.00;96.90;;;;;;5035464;28;20098;-70
2021/01/31 01:12:09;;;;;;;15.95;8.10;;;-0.10;96.80;;;;;;5035184;28;20033;-71
2021/01/31 01:14:34;;;;;;;18.10;9.20;;;-0.30;97.00;;;;;;5067207;28;20048;-69
2021/01/31 01:17:02;;;;;;;15.85;8.50;;;-0.30;97.00;;;;;;5036663;28;20370;-70
2021/01/31 01:19:28;;;;;;;18.00;9.23;;;-0.20;96.90;;;;;;5034808;28;20367;-71
2021/01/31 01:21:53;;;;;;;17.63;9.30;;;-0.10;96.90;;;;;;5020813;28;20741;-71
2021/01/31 01:24:19;;;;;;;17.00;9.38;;;-0.20;96.70;;;;;;5015277;28;20072;-69
2021/01/31 01:26:45;;;;;;;17.80;8.82;;;-0.20;96.60;;;;;;5019286;28;20065;-71
2021/01/31 01:29:11;;;;;;;18.75;9.45;;;-0.10;96.70;;;;;;5036307;28;20079;-70
2021/01/31 01:31:37;;;;;;;16.55;9.50;;;-0.20;96.60;;;;;;5015300;28;20073;-69
2021/01/31 01:34:04;;;;;;;18.65;9.05;;;-0.30;96.90;;;;;;5030034;28;20037;-70
2021/01/31 01:36:30;;;;;;;16.58;8.73;;;-0.40;96.90;;;;;;5023577;28;20061;-69
2021/01/31 01:38:55;;;;;;;18.08;9.02;;;-0.40;96.50;;;;;;5020795;28;20033;-71
2021/01/31 01:41:21;;;;;;;21.65;9.88;;;-0.40;96.60;;;;;;5034492;28;20455;-71
2021/01/31 01:43:51;;;;;;;21.25;9.60;;;-0.30;96.50;;;;;;5036193;28;20043;-70
2021/01/31 01:46:19;;;;;;;15.63;8.73;;;-0.30;96.40;;;;;;5034375;28;20167;-70
2021/01/31 01:49:11;;;;;;;17.27;8.90;;;-0.20;96.40;;;;;;5034427;28;20033;-70
2021/01/31 01:51:57;;;;;;;16.70;9.18;;;-0.30;96.20;;;;;;5034573;28;20040;-70
2021/01/31 01:54:29;;;;;;;21.58;8.95;;;-0.30;96.30;;;;;;5034072;28;20061;-70
2021/01/31 01:57:01;;;;;;;16.25;9.48;;;-0.40;96.30;;;;;;5034093;28;20036;-69
2021/01/31 01:59:29;;;;;;;20.65;8.80;;;-0.40;96.40;;;;;;5034036;28;20033;-70
2021/01/31 02:02:21;;;;;;;;;;;-0.40;96.20;;;;;;5035752;28;20032;-70
2021/01/31 02:04:48;;;;;;;17.23;9.10;;;-0.60;96.10;;;;;;5034229;28;20365;-71
2021/01/31 02:07:14;;;;;;;16.75;8.80;;;-0.60;96.30;;;;;;5034166;28;20044;-71
2021/01/31 02:09:44;;;;;;;18.30;9.13;;;-0.60;96.40;;;;;;5033898;28;20037;-69
2021/01/31 02:12:10;;;;;;;17.20;9.98;;;-0.50;96.50;;;;;;5066235;28;20038;-69
2021/01/31 02:14:36;;;;;;;24.23;9.48;;;-0.60;96.40;;;;;;5033808;28;20452;-69
2021/01/31 02:17:12;;;;;;;17.45;9.52;;;-0.60;96.40;;;;;;5034541;28;20074;-71
2021/01/31 02:20:36;;;;;;;16.75;9.20;;;-0.60;96.40;;;;;;5034266;28;20033;-70
2021/01/31 02:23:36;;;;;;;18.58;9.40;;;-0.50;96.10;;;;;;4995653;28;20029;-69
2021/01/31 02:26:14;;;;;;;19.80;9.13;;;-0.60;96.20;;;;;;5034169;28;20355;-70
2021/01/31 02:28:55;;;;;;;18.50;9.73;;;-0.60;96.20;;;;;;5033860;28;20124;-71
2021/01/31 02:32:00;;;;;;;20.75;9.45;;;-0.60;96.20;;;;;;5033484;28;20537;-70
2021/01/31 02:34:43;;;;;;;18.40;8.85;;;-0.60;96.20;;;;;;5015142;28;20049;-70
2021/01/31 02:37:43;;;;;;;17.90;9.63;;;-0.70;96.10;;;;;;5013456;28;20049;-70
2021/01/31 02:40:17;;;;;;;20.85;9.43;;;-0.80;96.20;;;;;;5030026;28;20079;-69
2021/01/31 02:42:58;;;;;;;18.90;9.77;;;-0.70;96.40;;;;;;5019761;28;20496;-69
2021/01/31 02:45:37;;;;;;;21.05;10.40;;;-0.70;96.20;;;;;;5013887;28;20037;-68
2021/01/31 02:48:13;;;;;;;23.35;10.50;;;-0.70;96.00;;;;;;5020620;28;20412;-68
2021/01/31 02:50:57;;;;;;;18.17;10.27;;;-0.60;96.20;;;;;;5032076;28;20135;-70
2021/01/31 02:53:30;;;;;;;20.55;10.43;;;-0.60;96.40;;;;;;5032894;28;20021;-68
2021/01/31 02:56:17;;;;;;;20.85;9.95;;;-0.90;96.00;;;;;;5034806;28;20022;-68
2021/01/31 02:58:51;;;;;;;17.37;10.03;;;-0.90;96.10;;;;;;5033254;28;20124;-69
2021/01/31 03:01:36;;;;;;;21.73;9.77;;;-0.90;96.00;;;;;;5033437;28;20368;-69
2021/01/31 03:04:23;;;;;;;17.95;9.80;;;-0.90;96.10;;;;;;5033061;28;20167;-70
2021/01/31 03:06:55;;;;;;;18.63;9.40;;;-0.90;96.20;;;;;;5032575;28;20041;-70
2021/01/31 03:09:56;;;;;;;18.80;9.50;;;-0.70;96.40;;;;;;5032809;28;20111;-70
2021/01/31 03:12:33;;;;;;;19.63;9.43;;;-0.80;96.10;;;;;;5031339;28;20359;-69
2021/01/31 03:15:06;;;;;;;15.98;8.52;;;-0.80;95.90;;;;;;5032911;28;20460;-70
2021/01/31 03:17:56;;;;;;;18.42;9.15;;;-0.90;95.70;;;;;;5032810;28;20038;-68
2021/01/31 03:20:29;;;;;;;17.98;9.65;;;-1.10;95.60;;;;;;5032915;28;20029;-68
2021/01/31 03:23:24;;;;;;;19.38;9.48;;;-1.00;96.10;;;;;;5033232;28;20033;-68
2021/01/31 03:25:55;;;;;;;20.90;9.90;;;-0.90;96.30;;;;;;5033009;28;20515;-69
2021/01/31 03:28:21;;;;;;;22.05;10.38;;;-0.90;96.10;;;;;;5031383;28;20034;-69
2021/01/31 03:30:47;;;;;;;17.85;9.13;;;-0.80;96.10;;;;;;5032467;28;20053;-69
2021/01/31 03:33:48;;;;;;;21.00;9.63;;;-0.90;96.00;;;;;;5032785;28;20082;-69
2021/01/31 03:36:14;;;;;;;20.80;9.48;;;-0.90;95.90;;;;;;5032763;28;20375;-69
2021/01/31 03:38:52;;;;;;;20.92;10.10;;;-1.00;95.80;;;;;;5032311;28;20482;-69
2021/01/31 03:41:21;;;;;;;18.75;9.57;;;-1.00;95.80;;;;;;5032119;28;20021;-68
2021/01/31 03:43:46;;;;;;;19.45;9.65;;;-1.00;95.70;;;;;;5033826;28;20158;-69
2021/01/31 03:46:23;;;;;;;20.35;10.35;;;-1.00;95.70;;;;;;5032148;28;20117;-69
2021/01/31 03:49:00;;;;;;;22.50;10.93;;;-1.00;95.60;;;;;;5032073;28;20034;-68
2021/01/31 03:51:27;;;;;;;19.50;9.57;;;-1.00;95.60;;;;;;5032270;28;20459;-69
2021/01/31 03:53:54;;;;;;;20.25;9.93;;;-1.10;95.90;;;;;;5032268;28;20033;-68
2021/01/31 03:56:31;;;;;;;19.40;10.02;;;-1.10;95.90;;;;;;5032026;28;20021;-68
2021/01/31 03:58:59;;;;;;;21.25;10.68;;;-1.10;95.80;;;;;;5032669;28;20338;-68
2021/01/31 04:01:26;;;;;;;19.10;10.25;;;-1.10;95.90;;;;;;5030749;28;20103;-69
2021/01/31 04:04:10;;;;;;;19.40;10.60;;;-1.20;95.90;;;;;;5032090;28;20049;-70
2021/01/31 04:06:38;;;;;;;23.48;9.50;;;-1.10;96.10;;;;;;5032054;28;20037;-70
2021/01/31 04:09:05;;;;;;;;;;;-1.00;96.00;;;;;;5032462;28;20121;-68
2021/01/31 04:11:42;;;;;;;21.30;10.25;;;-0.90;96.20;;;;;;5031900;28;20002;-69
2021/01/31 04:14:18;;;;;;;21.10;10.60;;;-0.90;96.20;;;;;;5033405;28;20029;-69
2021/01/31 04:16:47;;;;;;;20.05;10.27;;;-1.00;95.90;;;;;;5032130;28;20119;-69
2021/01/31 04:19:13;;;;;;;18.83;9.57;;;-1.00;95.90;;;;;;5030716;28;20040;-69
2021/01/31 04:21:39;;;;;;;23.27;10.00;;;-1.00;96.20;;;;;;5031912;28;20115;-70
2021/01/31 04:24:05;;;;;;;21.73;10.70;;;-1.00;96.30;;;;;;5031886;28;20041;-70
2021/01/31 04:26:31;;;;;;;23.52;10.95;;;-1.00;96.00;;;;;;5031781;28;20396;-68
2021/01/31 04:28:57;;;;;;;19.75;10.20;;;-1.00;96.10;;;;;;5033263;28;20329;-68
2021/01/31 04:31:24;;;;;;;21.60;10.15;;;-0.90;96.20;;;;;;5031794;28;20034;-69
2021/01/31 04:33:50;;;;;;;19.02;9.63;;;-1.00;96.10;;;;;;5031504;28;20045;-70
2021/01/31 04:36:15;;;;;;;29.10;10.07;;;-0.90;96.00;;;;;;5031741;28;20030;-70
2021/01/31 04:38:41;;;;;;;20.17;9.60;;;-0.90;95.70;;;;;;5030394;28;20495;-69
2021/01/31 04:41:08;;;;;;;21.52;10.63;;;-0.90;95.70;;;;;;5033246;28;20410;-70
2021/01/31 04:43:34;;;;;;;21.20;10.48;;;-0.80;95.70;;;;;;5031094;28;20479;-69
2021/01/31 04:46:00;;;;;;;21.80;10.60;;;-0.90;95.60;;;;;;5030324;28;20037;-69
2021/01/31 04:49:01;;;;;;;20.75;10.65;;;-1.00;95.50;;;;;;5030182;28;20051;-69
2021/01/31 04:51:50;;;;;;;20.48;9.73;;;-1.10;95.50;;;;;;5031392;28;20037;-69
2021/01/31 04:54:30;;;;;;;21.60;9.98;;;-1.20;95.70;;;;;;5029591;28;20352;-69
2021/01/31 04:57:08;;;;;;;24.33;10.15;;;-1.20;95.60;;;;;;5031397;28;20053;-71
2021/01/31 04:59:41;;;;;;;19.00;9.02;;;-1.20;95.50;;;;;;5031393;28;20048;-70
2021/01/31 05:02:26;;;;;;;22.17;10.55;;;-1.20;95.40;;;;;;5032877;28;20371;-70
2021/01/31 05:04:54;;;;;;;23.85;10.35;;;-1.40;95.30;;;;;;5031588;28;20061;-69
2021/01/31 05:07:34;;;;;;;16.60;8.15;;;-1.30;95.50;;;;;;5031228;28;20050;-69
2021/01/31 05:10:00;;;;;;;20.05;9.50;;;-1.20;95.40;;;;;;5031210;28;20379;-69
2021/01/31 05:12:49;;;;;;;18.60;9.75;;;-1.30;95.50;;;;;;5031283;28;20107;-68
2021/01/31 05:15:22;;;;;;;20.55;10.13;;;-1.30;95.60;;;;;;5031196;28;20121;-69
2021/01/31 05:17:49;;;;;;;20.73;9.50;;;-1.40;95.40;;;;;;5031444;28;20045;-69
2021/01/31 05:20:19;;;;;;;21.38;10.07;;;-1.40;95.70;;;;;;5030014;28;20025;-68
2021/01/31 05:22:49;;;;;;;19.40;9.65;;;-1.50;95.40;;;;;;5032776;28;20044;-68
2021/01/31 05:25:18;;;;;;;23.02;9.60;;;-1.50;95.40;;;;;;5063335;28;20084;-69
2021/01/31 05:27:45;;;;;;;19.20;9.05;;;-1.40;95.50;;;;;;5029975;28;20489;-70
2021/01/31 05:30:12;;;;;;;19.42;9.30;;;-1.40;95.30;;;;;;5030988;28;20053;-70
2021/01/31 05:33:00;;;;;;;25.77;10.55;;;-1.50;95.30;;;;;;5030518;28;20068;-70
2021/01/31 05:35:27;;;;;;;56.55;21.92;;;-1.50;95.40;;;;;;5031070;28;20021;-68
2021/01/31 05:37:52;;;;;;;36.45;13.80;;;-1.50;95.30;;;;;;5035137;28;20042;-70
2021/01/31 05:40:43;;;;;;;26.05;12.52;;;-1.50;95.30;;;;;;5034618;28;20040;-70
2021/01/31 05:43:16;;;;;;;17.13;8.48;;;-1.50;95.40;;;;;;5034995;28;20714;-69
2021/01/31 05:45:47;;;;;;;19.40;9.20;;;-1.50;95.50;;;;;;5034570;28;20049;-71
2021/01/31 05:48:37;;;;;;;19.85;9.52;;;-1.50;95.40;;;;;;5034503;28;20486;-69
2021/01/31 05:51:19;;;;;;;16.98;8.50;;;-1.50;95.40;;;;;;5033949;28;20542;-69
2021/01/31 05:53:45;;;;;;;40.05;16.38;;;-1.60;95.30;;;;;;5033925;28;20048;-70
2021/01/31 05:56:23;;;;;;;123.35;38.28;;;-1.70;95.50;;;;;;5035787;28;20022;-68
2021/01/31 05:58:50;;;;;;;;;;;-1.70;95.40;;;;;;5035117;28;20034;-70
2021/01/31 06:01:15;;;;;;;21.10;9.97;;;-1.70;95.40;;;;;;5034498;28;19916;-69
2021/01/31 06:03:42;;;;;;;23.40;10.07;;;-1.80;95.40;;;;;;5034381;28;20038;-68
2021/01/31 06:06:19;;;;;;;19.10;8.40;;;-1.90;95.40;;;;;;5034349;28;20037;-70
2021/01/31 06:08:47;;;;;;;18.85;9.50;;;-1.80;95.50;;;;;;5033961;28;20099;-69
2021/01/31 06:11:21;;;;;;;21.08;9.70;;;-1.90;95.40;;;;;;5066445;28;20040;-69
2021/01/31 06:13:59;;;;;;;23.48;8.98;;;-1.80;95.40;;;;;;5035607;28;20099;-70
2021/01/31 06:16:25;;;;;;;20.33;8.70;;;-1.70;95.50;;;;;;5034373;28;20044;-69
2021/01/31 06:19:07;;;;;;;21.15;9.60;;;-1.80;95.40;;;;;;5032923;28;20030;-70
2021/01/31 06:21:44;;;;;;;21.08;9.68;;;-1.90;95.20;;;;;;5034025;28;20050;-69
2021/01/31 06:24:38;;;;;;;16.95;8.35;;;-2.00;95.20;;;;;;5033900;28;20037;-70
2021/01/31 06:27:04;;;;;;;18.42;9.05;;;-2.00;95.30;;;;;;5033550;28;20045;-69
2021/01/31 06:29:48;;;;;;;15.98;8.52;;;-2.00;95.30;;;;;;5033624;28;20083;-70
2021/01/31 06:32:19;;;;;;;24.42;9.77;;;-2.00;95.30;;;;;;5033860;28;20021;-70
2021/01/31 06:34:52;;;;;;;23.67;10.38;;;-1.90;95.30;;;;;;5035245;28;20036;-69
2021/01/31 06:37:27;;;;;;;21.33;10.02;;;-2.10;95.20;;;;;;5033163;28;20059;-68
2021/01/31 06:40:16;;;;;;;21.33;9.75;;;-2.10;95.30;;;;;;5033497;28;20475;-69
2021/01/31 06:42:57;;;;;;;18.40;8.93;;;-2.10;95.40;;;;;;5033284;28;20037;-69
2021/01/31 06:45:44;;;;;;;19.38;9.13;;;-2.10;95.30;;;;;;5033332;28;20026;-69
2021/01/31 06:48:31;;;;;;;20.73;9.93;;;-2.00;95.30;;;;;;5033452;28;20037;-70
2021/01/31 06:51:24;;;;;;;21.45;9.88;;;-2.10;95.20;;;;;;5033451;28;20045;-70
2021/01/31 06:54:12;;;;;;;21.25;9.75;;;-2.00;95.30;;;;;;5033094;28;20033;-68
2021/01/31 06:57:07;;;;;;;22.13;9.57;;;-2.30;94.90;;;;;;5033589;28;20042;-70
2021/01/31 07:00:04;;;;;;;22.17;9.48;;;-2.20;95.10;;;;;;5033194;28;20040;-68
2021/01/31 07:02:38;;;;;;;24.23;9.67;;;-2.10;95.10;;;;;;5032880;28;20456;-69
2021/01/31 07:05:19;;;;;;;19.92;9.10;;;-2.20;94.90;;;;;;5034608;28;20286;-68
2021/01/31 07:08:15;;;;;;;18.05;9.35;;;-2.20;95.10;;;;;;5033185;28;20049;-68
2021/01/31 07:11:02;;;;;;;19.90;9.10;;;-2.20;95.00;;;;;;5033281;28;20065;-68
2021/01/31 07:14:00;;;;;;;18.92;8.98;;;-2.00;95.20;;;;;;5033019;28;20441;-68
2021/01/31 07:16:44;;;;;;;19.88;8.82;;;-2.10;95.00;;;;;;5032144;28;20045;-68
2021/01/31 07:19:39;;;;;;;22.85;9.32;;;-2.20;94.90;;;;;;5032694;28;20056;-69
2021/01/31 07:22:20;;;;;;;16.65;8.65;;;-2.30;95.10;;;;;;5031435;28;20524;-70
2021/01/31 07:25:08;;;;;;;21.45;9.45;;;-2.20;95.20;;;;;;5031592;28;20038;-68
2021/01/31 07:27:46;;;;;;;20.98;9.32;;;-2.10;94.90;;;;;;5032630;28;20037;-69
2021/01/31 07:30:31;;;;;;;22.40;9.50;;;-2.20;94.80;;;;;;5029832;28;20452;-69
2021/01/31 07:33:15;;;;;;;22.98;10.02;;;-2.30;94.90;;;;;;5032693;28;20091;-68
2021/01/31 07:35:56;;;;;;;19.25;9.43;;;-2.30;95.00;;;;;;5032485;28;20041;-69
2021/01/31 07:38:32;;;;;;;18.27;8.95;;;-2.20;95.00;;;;;;5031861;28;20049;-70
2021/01/31 07:40:59;;;;;;;19.65;9.20;;;-2.20;94.90;;;;;;5033112;28;20052;-69
2021/01/31 07:43:27;;;;;;;20.10;8.93;;;-2.10;95.00;;;;;;5031235;28;20175;-69
2021/01/31 07:45:59;;;;;;;22.65;10.02;;;-2.00;95.00;;;;;;5029970;28;20042;-70
2021/01/31 07:48:29;;;;;;;24.50;8.63;;;-2.10;94.80;;;;;;5032288;28;20414;-68
2021/01/31 07:50:55;;;;;;;19.88;9.25;;;-2.00;94.90;;;;;;5032105;28;20041;-69
2021/01/31 07:53:28;;;;;;;21.45;9.38;;;-2.10;94.80;;;;;;5063755;28;20041;-68
2021/01/31 07:55:54;;;;;;;18.65;9.18;;;-2.20;94.80;;;;;;5033888;28;20129;-69
2021/01/31 07:58:25;;;;;;;22.25;10.20;;;-2.10;94.90;;;;;;5031621;28;20738;-68
2021/01/31 08:00:53;;;;;;;19.55;9.13;;;-2.00;95.00;;;;;;5031938;28;20069;-71
2021/01/31 08:03:33;;;;;;;19.30;9.75;;;-1.90;95.20;;;;;;5032178;28;20045;-70
2021/01/31 08:06:06;;;;;;;22.60;9.48;;;-2.00;94.90;;;;;;5032220;28;20059;-72
2021/01/31 08:08:43;;;;;;;18.55;9.00;;;-2.00;95.10;;;;;;5032204;28;20052;-70
2021/01/31 08:11:37;;;;;;;21.10;8.90;;;-1.90;95.00;;;;;;5033591;28;20466;-69
2021/01/31 08:14:07;;;;;;;28.20;9.85;;;-1.90;95.10;;;;;;5064357;28;20503;-68
2021/01/31 08:16:48;;;;;;;24.02;9.48;;;-1.80;95.10;;;;;;5031890;28;20095;-70
2021/01/31 08:19:16;;;;;;;20.02;9.55;;;-1.80;94.90;;;;;;5031470;28;20448;-74
2021/01/31 08:21:51;;;;;;;22.30;10.10;;;-1.80;95.10;;;;;;5031341;28;20041;-72
2021/01/31 08:24:54;;;;;;;22.35;9.75;;;-1.80;95.20;;;;;;5031502;28;20090;-74
2021/01/31 08:27:42;;;;;;;24.42;9.98;;;-1.40;95.40;;;;;;5030528;28;20045;-73
2021/01/31 08:30:27;;;;;;;23.90;9.95;;;-1.60;95.10;;;;;;5031720;28;20041;-74
2021/01/31 08:33:02;;;;;;;21.52;9.80;;;-1.60;95.20;;;;;;5063675;28;20040;-75
2021/01/31 08:35:37;;;;;;;23.00;10.40;;;-1.60;95.20;;;;;;5031599;28;20105;-73
2021/01/31 08:38:13;;;;;;;21.55;9.88;;;-1.50;95.30;;;;;;5032873;28;20076;-72
2021/01/31 08:40:40;;;;;;;21.23;9.48;;;-1.50;95.30;;;;;;5032205;28;20483;-74
2021/01/31 08:43:10;;;;;;;18.70;9.52;;;-1.20;95.20;;;;;;5031240;28;20041;-79
2021/01/31 08:45:41;;;;;;;23.83;9.85;;;-0.90;95.10;;;;;;5031587;28;20037;-75
2021/01/31 08:48:07;;;;;;;25.55;10.68;;;-0.60;95.40;;;;;;5031751;28;20026;-76
2021/01/31 08:50:33;;;;;;;21.08;9.88;;;-0.20;95.60;;;;;;5031568;28;20172;-73
2021/01/31 08:53:00;;;;;;;23.80;10.50;;;0.30;95.80;;;;;;5033118;28;20469;-71
2021/01/31 08:55:26;;;;;;;26.00;10.82;;;0.70;96.00;;;;;;5031517;28;20041;-73
2021/01/31 08:58:00;;;;;;;23.25;11.10;;;1.00;95.80;;;;;;5031457;28;20052;-73
2021/01/31 09:00:27;;;;;;;23.08;10.77;;;1.30;95.70;;;;;;5030081;28;20045;-72
2021/01/31 09:02:53;;;;;;;22.23;10.50;;;1.60;95.30;;;;;;5030229;28;20116;-70
2021/01/31 09:05:20;;;;;;;19.33;10.65;;;2.10;94.80;;;;;;5031740;28;20096;-70
2021/01/31 09:07:48;;;;;;;21.17;10.20;;;2.30;94.00;;;;;;5031805;28;20032;-73
2021/01/31 09:10:26;;;;;;;18.40;10.00;;;2.60;93.80;;;;;;5031328;28;20041;-71
2021/01/31 09:13:11;;;;;;;;;;;2.90;93.30;;;;;;5033832;28;20033;-75
2021/01/31 09:15:36;;;;;;;19.25;9.23;;;3.10;92.50;;;;;;5034245;28;19920;-78
2021/01/31 09:18:21;;;;;;;20.45;9.63;;;3.00;92.20;;;;;;5034992;28;20363;-70
2021/01/31 09:20:48;;;;;;;29.13;12.43;;;2.60;92.40;;;;;;5034269;28;20044;-74
2021/01/31 09:23:20;;;;;;;23.77;11.70;;;2.50;92.60;;;;;;5034848;28;20463;-81
2021/01/31 09:25:47;;;;;;;20.77;10.52;;;2.40;92.60;;;;;;5036623;28;20097;-76
2021/01/31 09:28:22;;;;;;;21.60;10.05;;;2.40;92.80;;;;;;5018542;28;20334;-75
2021/01/31 09:30:50;;;;;;;19.23;9.63;;;2.10;92.60;;;;;;5015535;28;20026;-81
2021/01/31 09:33:32;;;;;;;18.33;9.40;;;2.20;93.20;;;;;;5015500;28;20174;-71
2021/01/31 09:36:15;;;;;;;19.52;10.25;;;1.90;93.40;;;;;;5014991;28;20022;-76
2021/01/31 09:38:40;;;;;;;18.58;10.07;;;2.00;94.10;;;;;;5018780;28;20052;-77
2021/01/31 09:41:07;;;;;;;25.58;11.18;;;2.10;94.20;;;;;;5036616;28;20025;-77
2021/01/31 09:43:34;;;;;;;23.40;11.27;;;2.00;94.30;;;;;;5034750;28;20036;-78
2021/01/31 09:46:10;;;;;;;21.73;10.85;;;2.10;94.40;;;;;;5034594;28;20472;-76
2021/01/31 09:48:36;;;;;;;21.13;10.35;;;2.00;94.50;;;;;;5034550;28;20043;-77
2021/01/31 09:51:05;;;;;;;21.45;10.98;;;2.00;94.70;;;;;;5033818;28;20121;-71
2021/01/31 09:53:35;;;;;;;23.58;11.27;;;2.00;95.00;;;;;;5034334;28;20057;-71
2021/01/31 09:56:04;;;;;;;19.70;9.93;;;2.00;95.00;;;;;;5035025;28;20443;-70
2021/01/31 09:58:44;;;;;;;22.02;10.35;;;2.00;95.00;;;;;;5034138;28;20092;-71
2021/01/31 10:01:26;;;;;;;20.77;10.15;;;2.00;95.00;;;;;;5033417;28;20041;-71
2021/01/31 10:04:03;;;;;;;19.60;10.45;;;2.00;95.10;;;;;;5034184;28;20124;-70
2021/01/31 10:06:39;;;;;;;;;;;2.20;95.30;;;;;;5034652;28;20045;-72
2021/01/31 10:09:05;;;;;;;13.95;8.23;;;2.10;95.10;;;;;;5034263;28;19916;-72
2021/01/31 10:11:38;;;;;;;18.10;9.23;;;2.10;94.60;;;;;;5033867;28;21845;-71
2021/01/31 10:14:06;;;;;;;19.13;8.90;;;2.10;94.40;;;;;;5035646;28;20432;-71
2021/01/31 10:16:35;;;;;;;16.92;8.95;;;2.10;94.30;;;;;;5033942;28;20033;-72
2021/01/31 10:19:16;;;;;;;18.15;9.15;;;2.10;94.60;;;;;;5033121;28;20095;-71
2021/01/31 10:21:49;;;;;;;21.15;10.50;;;2.10;95.20;;;;;;5033560;28;20120;-70
2021/01/31 10:24:26;;;;;;;18.10;10.18;;;2.30;95.30;;;;;;5033725;28;20055;-71
2021/01/31 10:27:10;;;;;;;17.80;9.80;;;2.40;95.30;;;;;;5033422;28;20034;-72
2021/01/31 10:29:36;;;;;;;22.88;10.60;;;2.50;95.10;;;;;;5032856;28;20182;-73
2021/01/31 10:32:21;;;;;;;19.98;10.50;;;2.50;95.10;;;;;;5035199;28;20029;-71
2021/01/31 10:34:47;;;;;;;17.13;9.07;;;2.50;94.90;;;;;;5034198;28;20060;-70
2021/01/31 10:37:19;;;;;;;17.17;9.20;;;2.40;94.90;;;;;;5032287;28;20049;-71
2021/01/31 10:39:46;;;;;;;18.23;9.60;;;2.30;94.90;;;;;;5033643;28;20053;-71
2021/01/31 10:42:13;;;;;;;17.77;8.93;;;2.50;95.00;;;;;;5032246;28;20029;-78
2021/01/31 10:44:39;;;;;;;17.63;9.40;;;2.70;95.20;;;;;;5033298;28;20254;-72
2021/01/31 10:47:04;;;;;;;16.30;9.40;;;2.70;95.20;;;;;;5034840;28;20036;-70
2021/01/31 10:49:30;;;;;;;15.73;9.32;;;2.80;95.00;;;;;;5033390;28;20037;-73
2021/01/31 10:51:56;;;;;;;16.92;8.63;;;3.00;95.00;;;;;;5033335;28;20447;-73
2021/01/31 10:54:24;;;;;;;20.45;9.45;;;3.20;94.70;;;;;;5033241;28;20036;-73
2021/01/31 10:56:49;;;;;;;;;;;3.80;94.10;;;;;;5033780;28;20357;-71
2021/01/31 10:59:15;;;;;;;19.70;10.25;;;4.80;93.90;;;;;;5032847;28;19920;-74
2021/01/31 11:01:48;;;;;;;18.13;9.35;;;6.20;92.80;;;;;;5035084;28;20025;-77
2021/01/31 11:04:19;;;;;;;17.55;9.13;;;7.20;91.70;;;;;;5033306;28;20056;-73
2021/01/31 11:06:45;;;;;;;14.40;8.60;;;7.70;88.80;;;;;;5033409;28;20037;-70
2021/01/31 11:09:11;;;;;;;17.52;10.02;;;8.80;86.40;;;;;;5033284;28;20382;-72
2021/01/31 11:11:40;;;;;;;15.52;8.75;;;9.00;84.20;;;;;;5033082;28;20413;-72
2021/01/31 11:14:06;;;;;;;15.20;8.95;;;10.40;81.10;;;;;;5034421;28;20100;-73
2021/01/31 11:16:32;;;;;;;13.13;8.55;;;10.90;77.50;;;;;;5032758;28;20068;-74
2021/01/31 11:18:57;;;;;;;15.30;8.73;;;10.70;74.10;;;;;;5032695;28;20439;-74
2021/01/31 11:21:25;;;;;;;13.75;8.20;;;10.90;72.90;;;;;;5064682;28;20029;-76
2021/01/31 11:23:53;;;;;;;12.85;8.05;;;10.90;68.80;;;;;;5031427;28;20045;-73
2021/01/31 11:26:19;;;;;;;12.40;7.53;;;11.30;69.70;;;;;;5031683;28;20112;-75
2021/01/31 11:28:44;;;;;;;11.85;7.93;;;11.00;67.00;;;;;;5034161;28;20101;-74
2021/01/31 11:31:11;;;;;;;13.27;7.85;;;11.50;66.30;;;;;;5032506;28;20973;-73
2021/01/31 11:33:37;;;;;;;11.65;7.80;;;12.20;66.70;;;;;;5030840;28;20033;-76
2021/01/31 11:36:04;;;;;;;10.55;7.45;;;12.00;64.80;;;;;;5032906;28;20331;-73
2021/01/31 11:38:30;;;;;;;10.38;7.28;;;12.70;64.80;;;;;;5032216;28;20054;-72
2021/01/31 11:40:55;;;;;;;11.50;7.90;;;12.70;60.70;;;;;;5034000;28;20032;-74
2021/01/31 11:43:21;;;;;;;11.68;7.90;;;12.80;59.70;;;;;;5032028;28;20038;-72
2021/01/31 11:45:47;;;;;;;13.48;7.88;;;12.40;58.10;;;;;;5032504;28;20034;-72
2021/01/31 11:48:13;;;;;;;14.40;9.00;;;12.70;60.10;;;;;;5031276;28;20467;-73
2021/01/31 11:50:39;;;;;;;15.25;9.38;;;12.90;58.70;;;;;;5032198;28;20029;-73
2021/01/31 11:53:04;;;;;;;12.70;8.48;;;12.70;57.80;;;;;;5033881;28;20041;-77
2021/01/31 11:55:30;;;;;;;11.73;7.50;;;12.10;59.30;;;;;;5032233;28;20607;-72
2021/01/31 11:57:55;;;;;;;18.73;10.30;;;11.40;60.10;;;;;;5031958;28;20034;-76
2021/01/31 12:00:21;;;;;;;11.20;7.53;;;11.10;61.00;;;;;;5032142;28;20052;-71
2021/01/31 12:02:47;;;;;;;17.45;9.18;;;10.40;62.20;;;;;;5031917;28;20206;-72
2021/01/31 12:05:16;;;;;;;16.35;10.55;;;10.00;63.20;;;;;;5032139;28;20090;-71
2021/01/31 12:07:41;;;;;;;15.65;9.63;;;9.70;65.40;;;;;;5033503;28;20040;-71
2021/01/31 12:10:10;;;;;;;19.00;10.88;;;9.20;67.20;;;;;;5030909;28;20034;-72
2021/01/31 12:12:36;;;;;;;12.18;7.88;;;8.80;68.30;;;;;;5031916;28;20038;-71
2021/01/31 12:15:03;;;;;;;9.80;6.88;;;8.70;70.30;;;;;;5031635;28;20036;-71
2021/01/31 12:17:29;;;;;;;14.23;7.97;;;8.80;69.20;;;;;;5030775;28;20032;-72
2021/01/31 12:19:55;;;;;;;12.40;7.68;;;8.80;68.70;;;;;;5032316;28;20724;-71
2021/01/31 12:22:22;;;;;;;12.63;7.88;;;8.40;69.70;;;;;;5031874;28;20064;-73
2021/01/31 12:24:47;;;;;;;12.75;7.15;;;8.30;71.50;;;;;;5031613;28;20082;-69
2021/01/31 12:27:13;;;;;;;12.90;6.43;;;8.20;72.20;;;;;;5031469;28;20120;-70
2021/01/31 12:29:39;;;;;;;11.90;7.90;;;8.10;71.00;;;;;;5031700;28;20451;-76
2021/01/31 12:32:04;;;;;;;11.23;7.78;;;8.20;73.20;;;;;;5065698;28;20379;-75
2021/01/31 12:34:30;;;;;;;12.55;7.80;;;8.00;75.50;;;;;;5031715;28;20041;-77
2021/01/31 12:36:56;;;;;;;11.27;7.10;;;7.70;76.20;;;;;;5030494;28;20045;-77
2021/01/31 12:39:21;;;;;;;9.43;6.72;;;7.70;75.70;;;;;;5031916;28;20123;-75
2021/01/31 12:41:47;;;;;;;11.68;7.40;;;7.50;76.40;;;;;;5031907;28;20461;-74
2021/01/31 12:44:14;;;;;;;26.98;13.02;;;7.40;76.70;;;;;;5031976;28;20463;-74
2021/01/31 12:46:39;;;;;;;25.98;12.23;;;7.20;77.60;;;;;;5039870;28;20025;-72
2021/01/31 12:49:05;;;;;;;22.10;11.48;;;6.90;78.40;;;;;;5038393;28;20083;-70
2021/01/31 12:51:31;;;;;;;15.38;8.70;;;7.00;79.30;;;;;;5038304;28;20040;-75
2021/01/31 12:53:56;;;;;;;18.23;9.52;;;6.90;79.90;;;;;;5037861;28;20137;-73
2021/01/31 12:56:22;;;;;;;16.45;8.55;;;6.70;80.30;;;;;;5038201;28;20357;-72
2021/01/31 12:58:47;;;;;;;16.83;8.52;;;6.60;82.00;;;;;;5039539;28;20083;-73
2021/01/31 13:01:13;;;;;;;12.55;7.60;;;6.60;82.20;;;;;;5038203;28;20418;-72
2021/01/31 13:03:39;;;;;;;16.38;9.27;;;6.50;82.30;;;;;;5037769;28;20037;-73
2021/01/31 13:06:04;;;;;;;13.93;7.57;;;6.50;83.50;;;;;;5070167;28;20037;-73
2021/01/31 13:08:30;;;;;;;11.68;6.85;;;6.50;83.10;;;;;;5037070;28;20358;-73